sensor_id;sensor_type;location;lat;lon;timestamp;P1;durP1;ratioP1;P2;durP2;ratioP2
46653;SDS011;38960;51.074;17.004;2022-11-14T00:01:26;38.60;;;27.50;;
46653;SDS011;38960;51.074;17.004;2022-11-14T00:04:10;39.00;;;27.27;;
46653;SDS011;38960;51.074;17.004;2022-11-14T00:06:54;49.47;;;28.60;;
46653;SDS011;38960;51.074;17.004;2022-11-14T00:09:38;47.30;;;29.10;;
46653;SDS011;38960;51.074;17.004;2022-11-14T00:12:25;41.27;;;28.63;;
46653;SDS011;38960;51.074;17.004;2022-11-14T00:15:09;43.53;;;29.45;;
46653;SDS011;38960;51.074;17.004;2022-11-14T00:17:54;42.47;;;28.63;;
46653;SDS011;38960;51.074;17.004;2022-11-14T00:20:38;39.97;;;27.43;;
46653;SDS011;38960;51.074;17.004;2022-11-14T00:23:22;41.77;;;27.80;;
46653;SDS011;38960;51.074;17.004;2022-11-14T00:26:06;37.33;;;25.20;;
46653;SDS011;38960;51.074;17.004;2022-11-14T00:28:50;36.20;;;26.50;;
46653;SDS011;38960;51.074;17.004;2022-11-14T00:31:33;34.63;;;25.07;;
46653;SDS011;38960;51.074;17.004;2022-11-14T00:34:17;36.47;;;24.67;;
46653;SDS011;38960;51.074;17.004;2022-11-14T00:37:01;37.95;;;26.13;;
46653;SDS011;38960;51.074;17.004;2022-11-14T00:39:45;43.57;;;26.50;;
46653;SDS011;38960;51.074;17.004;2022-11-14T00:42:29;36.77;;;25.00;;
46653;SDS011;38960;51.074;17.004;2022-11-14T00:45:13;47.50;;;27.25;;
46653;SDS011;38960;51.074;17.004;2022-11-14T00:47:57;34.72;;;24.85;;
46653;SDS011;38960;51.074;17.004;2022-11-14T00:50:41;48.40;;;25.40;;
46653;SDS011;38960;51.074;17.004;2022-11-14T00:53:25;50.70;;;24.77;;
46653;SDS011;38960;51.074;17.004;2022-11-14T00:56:09;32.90;;;23.60;;
46653;SDS011;38960;51.074;17.004;2022-11-14T00:58:53;32.70;;;24.43;;
46653;SDS011;38960;51.074;17.004;2022-11-14T01:01:37;32.40;;;23.20;;
46653;SDS011;38960;51.074;17.004;2022-11-14T01:04:21;39.07;;;23.60;;
46653;SDS011;38960;51.074;17.004;2022-11-14T01:07:05;33.83;;;23.47;;
46653;SDS011;38960;51.074;17.004;2022-11-14T01:09:49;36.23;;;26.03;;
46653;SDS011;38960;51.074;17.004;2022-11-14T01:12:33;39.73;;;24.90;;
46653;SDS011;38960;51.074;17.004;2022-11-14T01:15:17;48.07;;;24.90;;
46653;SDS011;38960;51.074;17.004;2022-11-14T01:18:01;62.67;;;25.23;;
46653;SDS011;38960;51.074;17.004;2022-11-14T01:20:46;34.27;;;24.70;;
46653;SDS011;38960;51.074;17.004;2022-11-14T01:23:31;35.20;;;25.02;;
46653;SDS011;38960;51.074;17.004;2022-11-14T01:26:15;49.33;;;24.50;;
46653;SDS011;38960;51.074;17.004;2022-11-14T01:28:59;35.40;;;25.43;;
46653;SDS011;38960;51.074;17.004;2022-11-14T01:31:42;34.17;;;25.00;;
46653;SDS011;38960;51.074;17.004;2022-11-14T01:34:26;35.30;;;25.10;;
46653;SDS011;38960;51.074;17.004;2022-11-14T01:37:11;38.47;;;24.65;;
46653;SDS011;38960;51.074;17.004;2022-11-14T01:39:55;36.67;;;24.73;;
46653;SDS011;38960;51.074;17.004;2022-11-14T01:42:39;34.00;;;23.80;;
46653;SDS011;38960;51.074;17.004;2022-11-14T01:48:49;44.77;;;25.23;;
46653;SDS011;38960;51.074;17.004;2022-11-14T01:51:40;44.73;;;25.17;;
46653;SDS011;38960;51.074;17.004;2022-11-14T01:54:27;37.27;;;26.27;;
46653;SDS011;38960;51.074;17.004;2022-11-14T01:57:14;62.07;;;27.47;;
46653;SDS011;38960;51.074;17.004;2022-11-14T02:00:04;44.23;;;27.90;;
46653;SDS011;38960;51.074;17.004;2022-11-14T02:02:50;51.80;;;30.53;;
46653;SDS011;38960;51.074;17.004;2022-11-14T02:05:34;48.23;;;30.17;;
46653;SDS011;38960;51.074;17.004;2022-11-14T02:08:18;49.93;;;30.00;;
46653;SDS011;38960;51.074;17.004;2022-11-14T02:11:03;57.33;;;31.87;;
46653;SDS011;38960;51.074;17.004;2022-11-14T02:13:47;52.53;;;30.42;;
46653;SDS011;38960;51.074;17.004;2022-11-14T02:16:31;49.73;;;32.17;;
46653;SDS011;38960;51.074;17.004;2022-11-14T02:19:15;50.60;;;31.60;;
46653;SDS011;38960;51.074;17.004;2022-11-14T02:22:00;54.90;;;33.80;;
46653;SDS011;38960;51.074;17.004;2022-11-14T02:24:44;57.90;;;34.83;;
46653;SDS011;38960;51.074;17.004;2022-11-14T02:27:29;54.97;;;36.67;;
46653;SDS011;38960;51.074;17.004;2022-11-14T02:30:17;58.40;;;37.13;;
46653;SDS011;38960;51.074;17.004;2022-11-14T02:33:03;54.77;;;35.83;;
46653;SDS011;38960;51.074;17.004;2022-11-14T02:35:47;79.43;;;36.57;;
46653;SDS011;38960;51.074;17.004;2022-11-14T02:38:31;53.67;;;35.53;;
46653;SDS011;38960;51.074;17.004;2022-11-14T02:41:15;67.20;;;35.73;;
46653;SDS011;38960;51.074;17.004;2022-11-14T02:43:59;65.80;;;35.60;;
46653;SDS011;38960;51.074;17.004;2022-11-14T02:46:43;57.50;;;34.27;;
46653;SDS011;38960;51.074;17.004;2022-11-14T02:49:28;70.73;;;36.20;;
46653;SDS011;38960;51.074;17.004;2022-11-14T02:52:11;63.37;;;33.83;;
46653;SDS011;38960;51.074;17.004;2022-11-14T02:54:56;56.70;;;35.93;;
46653;SDS011;38960;51.074;17.004;2022-11-14T02:57:39;56.77;;;36.13;;
46653;SDS011;38960;51.074;17.004;2022-11-14T03:00:23;52.57;;;35.40;;
46653;SDS011;38960;51.074;17.004;2022-11-14T03:03:07;60.33;;;37.13;;
46653;SDS011;38960;51.074;17.004;2022-11-14T03:05:51;60.33;;;38.20;;
46653;SDS011;38960;51.074;17.004;2022-11-14T03:08:35;59.57;;;38.80;;
46653;SDS011;38960;51.074;17.004;2022-11-14T03:11:19;60.87;;;37.40;;
46653;SDS011;38960;51.074;17.004;2022-11-14T03:14:03;66.70;;;39.07;;
46653;SDS011;38960;51.074;17.004;2022-11-14T03:16:47;67.77;;;40.90;;
46653;SDS011;38960;51.074;17.004;2022-11-14T03:19:31;63.03;;;40.13;;
46653;SDS011;38960;51.074;17.004;2022-11-14T03:22:15;60.93;;;36.90;;
46653;SDS011;38960;51.074;17.004;2022-11-14T03:24:59;68.93;;;40.33;;
46653;SDS011;38960;51.074;17.004;2022-11-14T03:27:44;65.67;;;39.50;;
46653;SDS011;38960;51.074;17.004;2022-11-14T03:30:27;58.10;;;37.30;;
46653;SDS011;38960;51.074;17.004;2022-11-14T03:33:11;73.67;;;41.00;;
46653;SDS011;38960;51.074;17.004;2022-11-14T03:35:55;62.37;;;37.27;;
46653;SDS011;38960;51.074;17.004;2022-11-14T03:38:39;57.83;;;37.00;;
46653;SDS011;38960;51.074;17.004;2022-11-14T03:41:23;69.37;;;37.47;;
46653;SDS011;38960;51.074;17.004;2022-11-14T03:44:07;65.10;;;36.47;;
46653;SDS011;38960;51.074;17.004;2022-11-14T03:46:51;78.07;;;36.83;;
46653;SDS011;38960;51.074;17.004;2022-11-14T03:49:35;62.97;;;37.37;;
46653;SDS011;38960;51.074;17.004;2022-11-14T03:52:19;65.80;;;39.20;;
46653;SDS011;38960;51.074;17.004;2022-11-14T03:55:03;63.50;;;35.87;;
46653;SDS011;38960;51.074;17.004;2022-11-14T03:57:48;61.67;;;38.07;;
46653;SDS011;38960;51.074;17.004;2022-11-14T04:00:32;68.40;;;38.27;;
46653;SDS011;38960;51.074;17.004;2022-11-14T04:03:16;60.73;;;36.10;;
46653;SDS011;38960;51.074;17.004;2022-11-14T04:06:00;61.07;;;36.80;;
46653;SDS011;38960;51.074;17.004;2022-11-14T04:08:44;62.83;;;36.40;;
46653;SDS011;38960;51.074;17.004;2022-11-14T04:11:28;62.57;;;36.47;;
46653;SDS011;38960;51.074;17.004;2022-11-14T04:14:12;63.17;;;35.73;;
46653;SDS011;38960;51.074;17.004;2022-11-14T04:16:56;59.93;;;35.20;;
46653;SDS011;38960;51.074;17.004;2022-11-14T04:19:40;57.90;;;33.03;;
46653;SDS011;38960;51.074;17.004;2022-11-14T04:22:24;76.63;;;36.20;;
46653;SDS011;38960;51.074;17.004;2022-11-14T04:25:08;58.80;;;35.17;;
46653;SDS011;38960;51.074;17.004;2022-11-14T04:27:52;59.67;;;34.27;;
46653;SDS011;38960;51.074;17.004;2022-11-14T04:30:36;58.00;;;35.37;;
46653;SDS011;38960;51.074;17.004;2022-11-14T04:33:20;58.80;;;34.20;;
46653;SDS011;38960;51.074;17.004;2022-11-14T04:36:04;61.07;;;35.03;;
46653;SDS011;38960;51.074;17.004;2022-11-14T04:38:48;63.20;;;35.97;;
46653;SDS011;38960;51.074;17.004;2022-11-14T04:41:32;64.30;;;34.60;;
46653;SDS011;38960;51.074;17.004;2022-11-14T04:44:16;59.27;;;35.77;;
46653;SDS011;38960;51.074;17.004;2022-11-14T04:47:00;55.93;;;33.70;;
46653;SDS011;38960;51.074;17.004;2022-11-14T04:49:44;57.07;;;34.27;;
46653;SDS011;38960;51.074;17.004;2022-11-14T04:52:28;57.27;;;32.53;;
46653;SDS011;38960;51.074;17.004;2022-11-14T04:55:12;64.13;;;34.77;;
46653;SDS011;38960;51.074;17.004;2022-11-14T04:57:56;58.33;;;35.90;;
46653;SDS011;38960;51.074;17.004;2022-11-14T05:00:41;61.20;;;34.37;;
46653;SDS011;38960;51.074;17.004;2022-11-14T05:03:25;60.63;;;34.30;;
46653;SDS011;38960;51.074;17.004;2022-11-14T05:06:09;60.17;;;34.53;;
46653;SDS011;38960;51.074;17.004;2022-11-14T05:08:53;66.30;;;35.40;;
46653;SDS011;38960;51.074;17.004;2022-11-14T05:11:38;65.83;;;36.93;;
46653;SDS011;38960;51.074;17.004;2022-11-14T05:14:22;67.73;;;35.27;;
46653;SDS011;38960;51.074;17.004;2022-11-14T05:17:06;64.77;;;34.67;;
46653;SDS011;38960;51.074;17.004;2022-11-14T05:19:49;70.57;;;36.87;;
46653;SDS011;38960;51.074;17.004;2022-11-14T05:22:33;68.90;;;35.23;;
46653;SDS011;38960;51.074;17.004;2022-11-14T05:25:17;64.53;;;34.77;;
46653;SDS011;38960;51.074;17.004;2022-11-14T05:28:01;70.97;;;36.87;;
46653;SDS011;38960;51.074;17.004;2022-11-14T05:30:45;74.37;;;37.43;;
46653;SDS011;38960;51.074;17.004;2022-11-14T05:33:29;69.13;;;36.23;;
46653;SDS011;38960;51.074;17.004;2022-11-14T05:36:14;67.10;;;35.60;;
46653;SDS011;38960;51.074;17.004;2022-11-14T05:38:58;72.30;;;37.80;;
46653;SDS011;38960;51.074;17.004;2022-11-14T05:41:42;86.33;;;36.63;;
46653;SDS011;38960;51.074;17.004;2022-11-14T05:44:26;75.67;;;36.50;;
46653;SDS011;38960;51.074;17.004;2022-11-14T05:47:10;73.33;;;37.43;;
46653;SDS011;38960;51.074;17.004;2022-11-14T05:49:54;71.70;;;36.90;;
46653;SDS011;38960;51.074;17.004;2022-11-14T05:52:38;65.87;;;33.93;;
46653;SDS011;38960;51.074;17.004;2022-11-14T05:55:22;62.93;;;32.90;;
46653;SDS011;38960;51.074;17.004;2022-11-14T05:58:06;64.07;;;32.93;;
46653;SDS011;38960;51.074;17.004;2022-11-14T06:00:50;63.77;;;34.63;;
46653;SDS011;38960;51.074;17.004;2022-11-14T06:03:38;59.63;;;32.33;;
46653;SDS011;38960;51.074;17.004;2022-11-14T06:06:24;63.77;;;34.23;;
46653;SDS011;38960;51.074;17.004;2022-11-14T06:09:08;66.40;;;35.47;;
46653;SDS011;38960;51.074;17.004;2022-11-14T06:11:52;65.33;;;34.23;;
46653;SDS011;38960;51.074;17.004;2022-11-14T06:14:36;67.50;;;33.83;;
46653;SDS011;38960;51.074;17.004;2022-11-14T06:17:19;70.30;;;35.43;;
46653;SDS011;38960;51.074;17.004;2022-11-14T06:20:04;66.20;;;35.47;;
46653;SDS011;38960;51.074;17.004;2022-11-14T06:22:52;66.20;;;33.63;;
46653;SDS011;38960;51.074;17.004;2022-11-14T06:25:37;62.27;;;34.13;;
46653;SDS011;38960;51.074;17.004;2022-11-14T06:28:21;66.63;;;35.30;;
46653;SDS011;38960;51.074;17.004;2022-11-14T06:31:05;65.93;;;35.13;;
46653;SDS011;38960;51.074;17.004;2022-11-14T06:33:49;67.27;;;34.93;;
46653;SDS011;38960;51.074;17.004;2022-11-14T06:36:32;61.57;;;33.73;;
46653;SDS011;38960;51.074;17.004;2022-11-14T06:39:16;61.67;;;34.37;;
46653;SDS011;38960;51.074;17.004;2022-11-14T06:42:00;63.33;;;34.70;;
46653;SDS011;38960;51.074;17.004;2022-11-14T06:44:44;60.97;;;33.47;;
46653;SDS011;38960;51.074;17.004;2022-11-14T06:47:28;64.93;;;34.10;;
46653;SDS011;38960;51.074;17.004;2022-11-14T06:50:12;60.03;;;33.90;;
46653;SDS011;38960;51.074;17.004;2022-11-14T06:52:57;61.80;;;32.00;;
46653;SDS011;38960;51.074;17.004;2022-11-14T06:55:41;61.13;;;32.53;;
46653;SDS011;38960;51.074;17.004;2022-11-14T06:58:29;66.20;;;33.23;;
46653;SDS011;38960;51.074;17.004;2022-11-14T07:04:10;68.20;;;34.70;;
46653;SDS011;38960;51.074;17.004;2022-11-14T07:06:54;64.13;;;32.47;;
46653;SDS011;38960;51.074;17.004;2022-11-14T07:09:38;54.77;;;30.63;;
46653;SDS011;38960;51.074;17.004;2022-11-14T07:12:22;58.97;;;32.63;;
46653;SDS011;38960;51.074;17.004;2022-11-14T07:15:07;64.27;;;33.90;;
46653;SDS011;38960;51.074;17.004;2022-11-14T07:17:51;62.70;;;33.37;;
46653;SDS011;38960;51.074;17.004;2022-11-14T07:20:35;66.17;;;34.60;;
46653;SDS011;38960;51.074;17.004;2022-11-14T07:23:19;61.93;;;34.93;;
46653;SDS011;38960;51.074;17.004;2022-11-14T07:26:04;61.93;;;33.73;;
46653;SDS011;38960;51.074;17.004;2022-11-14T07:28:51;68.13;;;35.33;;
46653;SDS011;38960;51.074;17.004;2022-11-14T07:31:35;65.43;;;34.17;;
46653;SDS011;38960;51.074;17.004;2022-11-14T07:34:20;68.67;;;35.87;;
46653;SDS011;38960;51.074;17.004;2022-11-14T07:37:04;64.93;;;34.67;;
46653;SDS011;38960;51.074;17.004;2022-11-14T07:39:48;70.60;;;36.23;;
46653;SDS011;38960;51.074;17.004;2022-11-14T07:42:32;64.78;;;35.08;;
46653;SDS011;38960;51.074;17.004;2022-11-14T07:45:16;62.60;;;33.70;;
46653;SDS011;38960;51.074;17.004;2022-11-14T07:48:00;61.53;;;33.60;;
46653;SDS011;38960;51.074;17.004;2022-11-14T07:50:45;63.60;;;33.93;;
46653;SDS011;38960;51.074;17.004;2022-11-14T07:53:30;60.83;;;33.77;;
46653;SDS011;38960;51.074;17.004;2022-11-14T07:56:14;63.50;;;33.73;;
46653;SDS011;38960;51.074;17.004;2022-11-14T07:58:59;61.60;;;33.00;;
46653;SDS011;38960;51.074;17.004;2022-11-14T08:01:43;64.80;;;34.60;;
46653;SDS011;38960;51.074;17.004;2022-11-14T08:04:27;61.17;;;34.63;;
46653;SDS011;38960;51.074;17.004;2022-11-14T08:07:11;69.63;;;34.63;;
46653;SDS011;38960;51.074;17.004;2022-11-14T08:09:55;67.10;;;35.83;;
46653;SDS011;38960;51.074;17.004;2022-11-14T08:12:39;64.63;;;34.07;;
46653;SDS011;38960;51.074;17.004;2022-11-14T08:15:24;66.60;;;35.17;;
46653;SDS011;38960;51.074;17.004;2022-11-14T08:18:08;62.57;;;35.20;;
46653;SDS011;38960;51.074;17.004;2022-11-14T08:20:52;67.40;;;36.13;;
46653;SDS011;38960;51.074;17.004;2022-11-14T08:23:39;62.10;;;33.40;;
46653;SDS011;38960;51.074;17.004;2022-11-14T08:26:23;62.07;;;35.00;;
46653;SDS011;38960;51.074;17.004;2022-11-14T08:29:07;64.23;;;34.03;;
46653;SDS011;38960;51.074;17.004;2022-11-14T08:31:51;66.43;;;34.80;;
46653;SDS011;38960;51.074;17.004;2022-11-14T08:34:35;65.67;;;35.27;;
46653;SDS011;38960;51.074;17.004;2022-11-14T08:37:19;61.93;;;34.93;;
46653;SDS011;38960;51.074;17.004;2022-11-14T08:40:03;60.53;;;34.53;;
46653;SDS011;38960;51.074;17.004;2022-11-14T08:42:48;66.90;;;36.03;;
46653;SDS011;38960;51.074;17.004;2022-11-14T08:45:32;69.13;;;37.13;;
46653;SDS011;38960;51.074;17.004;2022-11-14T08:48:16;61.30;;;34.30;;
46653;SDS011;38960;51.074;17.004;2022-11-14T08:51:04;60.47;;;34.40;;
46653;SDS011;38960;51.074;17.004;2022-11-14T08:53:49;66.00;;;33.93;;
46653;SDS011;38960;51.074;17.004;2022-11-14T08:56:35;59.90;;;33.80;;
46653;SDS011;38960;51.074;17.004;2022-11-14T08:59:19;68.47;;;36.72;;
46653;SDS011;38960;51.074;17.004;2022-11-14T09:02:02;67.37;;;36.23;;
46653;SDS011;38960;51.074;17.004;2022-11-14T09:04:46;66.88;;;36.50;;
46653;SDS011;38960;51.074;17.004;2022-11-14T09:07:31;66.10;;;34.07;;
46653;SDS011;38960;51.074;17.004;2022-11-14T09:10:15;67.28;;;35.75;;
46653;SDS011;38960;51.074;17.004;2022-11-14T09:13:00;61.90;;;34.57;;
46653;SDS011;38960;51.074;17.004;2022-11-14T09:15:44;66.63;;;35.20;;
46653;SDS011;38960;51.074;17.004;2022-11-14T09:18:29;66.20;;;35.33;;
46653;SDS011;38960;51.074;17.004;2022-11-14T09:21:13;66.35;;;33.58;;
46653;SDS011;38960;51.074;17.004;2022-11-14T09:23:57;66.30;;;35.05;;
46653;SDS011;38960;51.074;17.004;2022-11-14T09:26:41;67.47;;;35.78;;
46653;SDS011;38960;51.074;17.004;2022-11-14T09:29:24;65.40;;;35.10;;
46653;SDS011;38960;51.074;17.004;2022-11-14T09:32:08;67.23;;;35.90;;
46653;SDS011;38960;51.074;17.004;2022-11-14T09:34:52;65.63;;;35.90;;
46653;SDS011;38960;51.074;17.004;2022-11-14T09:37:37;68.20;;;36.17;;
46653;SDS011;38960;51.074;17.004;2022-11-14T09:40:21;67.10;;;35.60;;
46653;SDS011;38960;51.074;17.004;2022-11-14T09:46:21;57.95;;;34.08;;
46653;SDS011;38960;51.074;17.004;2022-11-14T09:55:27;58.53;;;33.40;;
46653;SDS011;38960;51.074;17.004;2022-11-14T09:58:18;59.72;;;33.22;;
46653;SDS011;38960;51.074;17.004;2022-11-14T10:04:18;53.13;;;31.73;;
46653;SDS011;38960;51.074;17.004;2022-11-14T10:09:55;58.17;;;32.65;;
46653;SDS011;38960;51.074;17.004;2022-11-14T10:12:50;52.17;;;32.10;;
46653;SDS011;38960;51.074;17.004;2022-11-14T10:16:17;54.08;;;33.90;;
46653;SDS011;38960;51.074;17.004;2022-11-14T10:19:12;56.35;;;33.35;;
46653;SDS011;38960;51.074;17.004;2022-11-14T10:25:23;51.00;;;30.50;;
46653;SDS011;38960;51.074;17.004;2022-11-14T10:34:01;48.90;;;31.17;;
46653;SDS011;38960;51.074;17.004;2022-11-14T10:36:52;50.08;;;31.45;;
46653;SDS011;38960;51.074;17.004;2022-11-14T10:39:42;49.42;;;30.77;;
46653;SDS011;38960;51.074;17.004;2022-11-14T10:42:35;48.72;;;30.55;;
46653;SDS011;38960;51.074;17.004;2022-11-14T10:45:32;46.45;;;30.05;;
46653;SDS011;38960;51.074;17.004;2022-11-14T10:48:24;45.93;;;30.60;;
46653;SDS011;38960;51.074;17.004;2022-11-14T10:54:20;48.55;;;31.23;;
46653;SDS011;38960;51.074;17.004;2022-11-14T10:57:16;47.22;;;31.95;;
46653;SDS011;38960;51.074;17.004;2022-11-14T11:00:12;43.35;;;30.65;;
46653;SDS011;38960;51.074;17.004;2022-11-14T11:02:58;50.88;;;31.05;;
46653;SDS011;38960;51.074;17.004;2022-11-14T11:05:47;46.28;;;31.92;;
46653;SDS011;38960;51.074;17.004;2022-11-14T11:08:40;44.35;;;31.00;;
46653;SDS011;38960;51.074;17.004;2022-11-14T11:11:46;44.90;;;30.88;;
46653;SDS011;38960;51.074;17.004;2022-11-14T11:14:36;45.33;;;31.15;;
46653;SDS011;38960;51.074;17.004;2022-11-14T11:17:20;43.75;;;29.35;;
46653;SDS011;38960;51.074;17.004;2022-11-14T11:26:01;46.17;;;30.65;;
46653;SDS011;38960;51.074;17.004;2022-11-14T11:31:52;42.33;;;29.95;;
46653;SDS011;38960;51.074;17.004;2022-11-14T11:34:37;48.53;;;31.80;;
46653;SDS011;38960;51.074;17.004;2022-11-14T11:37:29;43.67;;;32.15;;
46653;SDS011;38960;51.074;17.004;2022-11-14T11:40:18;44.30;;;33.25;;
46653;SDS011;38960;51.074;17.004;2022-11-14T11:45:59;41.63;;;29.65;;
46653;SDS011;38960;51.074;17.004;2022-11-14T11:48:46;37.22;;;28.83;;
46653;SDS011;38960;51.074;17.004;2022-11-14T11:51:36;37.10;;;26.70;;
46653;SDS011;38960;51.074;17.004;2022-11-14T11:54:26;37.03;;;26.55;;
46653;SDS011;38960;51.074;17.004;2022-11-14T11:57:14;34.58;;;24.65;;
46653;SDS011;38960;51.074;17.004;2022-11-14T12:00:05;41.83;;;28.17;;
46653;SDS011;38960;51.074;17.004;2022-11-14T12:03:10;54.83;;;32.10;;
46653;SDS011;38960;51.074;17.004;2022-11-14T12:11:47;40.75;;;27.92;;
46653;SDS011;38960;51.074;17.004;2022-11-14T12:17:49;74.35;;;35.78;;
46653;SDS011;38960;51.074;17.004;2022-11-14T12:26:56;35.08;;;26.00;;
46653;SDS011;38960;51.074;17.004;2022-11-14T12:32:58;41.65;;;27.55;;
46653;SDS011;38960;51.074;17.004;2022-11-14T12:35:46;34.67;;;24.85;;
46653;SDS011;38960;51.074;17.004;2022-11-14T12:38:34;36.40;;;25.50;;
46653;SDS011;38960;51.074;17.004;2022-11-14T12:44:17;49.70;;;30.60;;
46653;SDS011;38960;51.074;17.004;2022-11-14T12:58:08;37.03;;;26.88;;
46653;SDS011;38960;51.074;17.004;2022-11-14T13:01:07;37.72;;;27.65;;
46653;SDS011;38960;51.074;17.004;2022-11-14T13:10:30;35.67;;;25.60;;
46653;SDS011;38960;51.074;17.004;2022-11-14T13:13:16;36.92;;;26.48;;
46653;SDS011;38960;51.074;17.004;2022-11-14T13:16:39;34.90;;;25.45;;
46653;SDS011;38960;51.074;17.004;2022-11-14T13:19:44;34.47;;;24.40;;
46653;SDS011;38960;51.074;17.004;2022-11-14T13:22:48;36.92;;;26.33;;
46653;SDS011;38960;51.074;17.004;2022-11-14T13:25:32;39.17;;;27.13;;
46653;SDS011;38960;51.074;17.004;2022-11-14T13:31:19;38.35;;;26.50;;
46653;SDS011;38960;51.074;17.004;2022-11-14T13:52:11;38.13;;;26.13;;
46653;SDS011;38960;51.074;17.004;2022-11-14T13:54:55;42.42;;;29.25;;
46653;SDS011;38960;51.074;17.004;2022-11-14T14:10:04;40.25;;;26.25;;
46653;SDS011;38960;51.074;17.004;2022-11-14T14:16:01;39.90;;;27.52;;
46653;SDS011;38960;51.074;17.004;2022-11-14T14:18:52;38.85;;;26.88;;
46653;SDS011;38960;51.074;17.004;2022-11-14T14:22:01;39.15;;;28.38;;
46653;SDS011;38960;51.074;17.004;2022-11-14T14:33:51;40.35;;;28.42;;
46653;SDS011;38960;51.074;17.004;2022-11-14T14:36:35;39.30;;;27.20;;
46653;SDS011;38960;51.074;17.004;2022-11-14T14:39:20;37.55;;;26.27;;
46653;SDS011;38960;51.074;17.004;2022-11-14T14:42:09;37.30;;;27.05;;
46653;SDS011;38960;51.074;17.004;2022-11-14T14:44:53;40.25;;;25.77;;
46653;SDS011;38960;51.074;17.004;2022-11-14T14:47:39;36.47;;;25.75;;
46653;SDS011;38960;51.074;17.004;2022-11-14T14:50:25;39.90;;;27.35;;
46653;SDS011;38960;51.074;17.004;2022-11-14T14:53:21;36.58;;;26.50;;
46653;SDS011;38960;51.074;17.004;2022-11-14T14:56:16;39.33;;;27.33;;
46653;SDS011;38960;51.074;17.004;2022-11-14T14:59:14;55.50;;;32.63;;
46653;SDS011;38960;51.074;17.004;2022-11-14T15:02:00;42.13;;;27.15;;
46653;SDS011;38960;51.074;17.004;2022-11-14T15:04:44;38.92;;;27.05;;
46653;SDS011;38960;51.074;17.004;2022-11-14T15:07:27;47.50;;;29.17;;
46653;SDS011;38960;51.074;17.004;2022-11-14T15:10:20;42.15;;;29.58;;
46653;SDS011;38960;51.074;17.004;2022-11-14T15:13:07;41.97;;;28.52;;
46653;SDS011;38960;51.074;17.004;2022-11-14T15:15:54;44.67;;;29.88;;
46653;SDS011;38960;51.074;17.004;2022-11-14T15:18:38;41.47;;;28.95;;
46653;SDS011;38960;51.074;17.004;2022-11-14T15:21:23;37.22;;;26.20;;
46653;SDS011;38960;51.074;17.004;2022-11-14T15:24:14;40.75;;;26.45;;
46653;SDS011;38960;51.074;17.004;2022-11-14T15:27:02;45.35;;;28.65;;
46653;SDS011;38960;51.074;17.004;2022-11-14T15:30:04;41.78;;;28.60;;
46653;SDS011;38960;51.074;17.004;2022-11-14T15:32:53;41.65;;;28.38;;
46653;SDS011;38960;51.074;17.004;2022-11-14T15:35:39;40.88;;;26.55;;
46653;SDS011;38960;51.074;17.004;2022-11-14T15:38:23;43.42;;;28.77;;
46653;SDS011;38960;51.074;17.004;2022-11-14T15:41:20;46.00;;;28.75;;
46653;SDS011;38960;51.074;17.004;2022-11-14T15:44:27;43.35;;;27.38;;
46653;SDS011;38960;51.074;17.004;2022-11-14T15:47:22;43.58;;;28.98;;
46653;SDS011;38960;51.074;17.004;2022-11-14T15:52:59;48.33;;;31.25;;
46653;SDS011;38960;51.074;17.004;2022-11-14T15:55:44;43.63;;;29.83;;
46653;SDS011;38960;51.074;17.004;2022-11-14T15:58:28;43.70;;;29.83;;
46653;SDS011;38960;51.074;17.004;2022-11-14T16:01:12;48.10;;;31.05;;
46653;SDS011;38960;51.074;17.004;2022-11-14T16:04:10;48.70;;;32.08;;
46653;SDS011;38960;51.074;17.004;2022-11-14T16:07:02;50.10;;;32.75;;
46653;SDS011;38960;51.074;17.004;2022-11-14T16:09:46;55.10;;;33.30;;
46653;SDS011;38960;51.074;17.004;2022-11-14T16:12:30;49.20;;;32.42;;
46653;SDS011;38960;51.074;17.004;2022-11-14T16:15:14;51.35;;;34.35;;
46653;SDS011;38960;51.074;17.004;2022-11-14T16:17:59;47.78;;;32.25;;
46653;SDS011;38960;51.074;17.004;2022-11-14T16:20:43;52.72;;;33.13;;
46653;SDS011;38960;51.074;17.004;2022-11-14T16:23:27;57.15;;;36.47;;
46653;SDS011;38960;51.074;17.004;2022-11-14T16:26:11;53.50;;;35.92;;
46653;SDS011;38960;51.074;17.004;2022-11-14T16:28:55;56.92;;;36.78;;
46653;SDS011;38960;51.074;17.004;2022-11-14T16:31:39;56.95;;;36.92;;
46653;SDS011;38960;51.074;17.004;2022-11-14T16:34:25;74.43;;;47.13;;
46653;SDS011;38960;51.074;17.004;2022-11-14T16:37:12;69.78;;;43.10;;
46653;SDS011;38960;51.074;17.004;2022-11-14T16:39:56;66.95;;;41.65;;
46653;SDS011;38960;51.074;17.004;2022-11-14T16:42:40;66.97;;;42.20;;
46653;SDS011;38960;51.074;17.004;2022-11-14T16:45:25;59.60;;;41.25;;
46653;SDS011;38960;51.074;17.004;2022-11-14T16:48:09;63.28;;;40.08;;
46653;SDS011;38960;51.074;17.004;2022-11-14T16:50:53;58.75;;;37.85;;
46653;SDS011;38960;51.074;17.004;2022-11-14T16:53:37;57.00;;;39.83;;
46653;SDS011;38960;51.074;17.004;2022-11-14T16:56:22;60.53;;;38.58;;
46653;SDS011;38960;51.074;17.004;2022-11-14T16:59:07;57.25;;;39.10;;
46653;SDS011;38960;51.074;17.004;2022-11-14T17:01:52;60.05;;;39.45;;
46653;SDS011;38960;51.074;17.004;2022-11-14T17:04:36;54.40;;;38.35;;
46653;SDS011;38960;51.074;17.004;2022-11-14T17:07:20;63.00;;;39.50;;
46653;SDS011;38960;51.074;17.004;2022-11-14T17:10:04;64.50;;;41.03;;
46653;SDS011;38960;51.074;17.004;2022-11-14T17:12:49;61.25;;;37.80;;
46653;SDS011;38960;51.074;17.004;2022-11-14T17:15:33;58.10;;;36.92;;
46653;SDS011;38960;51.074;17.004;2022-11-14T17:18:17;56.17;;;37.75;;
46653;SDS011;38960;51.074;17.004;2022-11-14T17:21:04;66.35;;;39.90;;
46653;SDS011;38960;51.074;17.004;2022-11-14T17:23:56;79.05;;;46.53;;
46653;SDS011;38960;51.074;17.004;2022-11-14T17:26:42;74.32;;;44.08;;
46653;SDS011;38960;51.074;17.004;2022-11-14T17:29:26;89.40;;;49.70;;
46653;SDS011;38960;51.074;17.004;2022-11-14T17:32:10;77.95;;;46.83;;
46653;SDS011;38960;51.074;17.004;2022-11-14T17:34:54;67.03;;;40.45;;
46653;SDS011;38960;51.074;17.004;2022-11-14T17:37:38;61.17;;;38.35;;
46653;SDS011;38960;51.074;17.004;2022-11-14T17:40:22;56.22;;;37.30;;
46653;SDS011;38960;51.074;17.004;2022-11-14T17:43:06;49.30;;;33.92;;
46653;SDS011;38960;51.074;17.004;2022-11-14T17:45:54;57.88;;;35.40;;
46653;SDS011;38960;51.074;17.004;2022-11-14T17:48:41;54.58;;;34.20;;
46653;SDS011;38960;51.074;17.004;2022-11-14T17:51:26;62.35;;;40.60;;
46653;SDS011;38960;51.074;17.004;2022-11-14T17:54:10;60.53;;;37.83;;
46653;SDS011;38960;51.074;17.004;2022-11-14T17:56:54;54.40;;;35.58;;
46653;SDS011;38960;51.074;17.004;2022-11-14T17:59:38;53.65;;;35.80;;
46653;SDS011;38960;51.074;17.004;2022-11-14T18:02:27;52.55;;;36.10;;
46653;SDS011;38960;51.074;17.004;2022-11-14T18:05:11;58.15;;;35.53;;
46653;SDS011;38960;51.074;17.004;2022-11-14T18:07:55;49.38;;;32.75;;
46653;SDS011;38960;51.074;17.004;2022-11-14T18:10:39;51.63;;;31.55;;